createdAt,value
2023-06-07T00:04:01.503Z,62.13
2023-06-07T00:09:05.276Z,62.30
2023-06-07T00:14:08.964Z,62.71
2023-06-07T00:19:12.539Z,62.86
2023-06-07T00:24:20.254Z,63.14
2023-06-07T00:29:23.971Z,63.30
2023-06-07T00:34:28.214Z,63.49
2023-06-07T00:39:31.898Z,63.96
2023-06-07T00:44:35.021Z,64.25
2023-06-07T00:49:40.109Z,64.20
2023-06-07T00:54:43.040Z,64.41
2023-06-07T00:59:49.922Z,64.68
2023-06-07T01:04:53.401Z,64.87
2023-06-07T01:09:55.830Z,65.31
2023-06-07T01:14:59.728Z,65.13
2023-06-07T01:20:06.570Z,65.43
2023-06-07T01:25:13.498Z,65.50
2023-06-07T01:30:17.330Z,65.85
2023-06-07T01:35:21.054Z,66.03
2023-06-07T01:40:25.968Z,66.38
2023-06-07T01:45:29.844Z,66.79
2023-06-07T01:50:33.099Z,67.04
2023-06-07T01:55:38.212Z,67.46
2023-06-07T02:01:20.143Z,67.66
2023-06-07T02:06:31.935Z,67.83
2023-06-07T02:11:35.706Z,67.94
2023-06-07T02:16:39.237Z,68.05
2023-06-07T02:21:41.901Z,68.04
2023-06-07T02:26:45.009Z,68.30
2023-06-07T02:31:51.484Z,68.40
2023-06-07T02:36:55.375Z,68.37
2023-06-07T02:41:59.300Z,68.41
2023-06-07T02:47:01.672Z,68.37
2023-06-07T02:52:05.995Z,68.50
2023-06-07T02:57:09.553Z,68.63
2023-06-07T03:02:13.335Z,68.72
2023-06-07T03:07:16.828Z,69.23
2023-06-07T03:12:19.287Z,69.27
2023-06-07T03:17:21.099Z,69.68
2023-06-07T03:22:23.211Z,69.36
2023-06-07T03:27:25.982Z,69.75
2023-06-07T03:32:28.257Z,70.24
2023-06-07T03:37:31.440Z,70.35
2023-06-07T03:42:34.911Z,70.41
2023-06-07T03:47:38.168Z,70.63
2023-06-07T03:52:40.954Z,71.17
2023-06-07T03:57:44.127Z,71.49
2023-06-07T04:02:46.752Z,71.80
2023-06-07T04:07:50.084Z,71.55
2023-06-07T04:12:52.994Z,71.53
2023-06-07T04:17:55.917Z,71.53
2023-06-07T04:22:58.503Z,71.97
2023-06-07T04:28:01.674Z,71.99
2023-06-07T04:33:11.397Z,71.92
2023-06-07T04:38:16.521Z,72.01
2023-06-07T04:43:21.146Z,71.98
2023-06-07T04:48:27.424Z,71.63
2023-06-07T04:53:42.931Z,71.33
2023-06-07T04:58:47.032Z,70.71
2023-06-07T05:03:51.834Z,69.74
2023-06-07T05:08:56.927Z,68.07
2023-06-07T05:14:00.632Z,65.48
2023-06-07T05:19:05.136Z,60.31
2023-06-07T05:24:07.940Z,54.76
2023-06-07T05:29:10.033Z,49.17
2023-06-07T05:34:12.158Z,43.98
2023-06-07T05:39:14.265Z,39.28
2023-06-07T05:44:20.144Z,35.68
2023-06-07T05:49:23.789Z,32.67
2023-06-07T05:54:26.794Z,29.61
2023-06-07T05:59:32.374Z,28.25
2023-06-07T06:04:36.250Z,26.16
2023-06-07T06:09:38.488Z,24.88
2023-06-07T06:14:40.942Z,24.05
2023-06-07T06:19:43.644Z,23.96
2023-06-07T06:24:46.819Z,24.31
2023-06-07T06:29:48.643Z,24.85
2023-06-07T06:34:50.626Z,24.99
2023-06-07T06:39:52.840Z,24.60
2023-06-07T06:44:55.485Z,23.76
2023-06-07T06:50:00.217Z,22.59
2023-06-07T06:55:02.181Z,21.84
2023-06-07T07:00:07.692Z,21.40
2023-06-07T07:05:12.089Z,20.77
2023-06-07T07:10:14.055Z,20.73
2023-06-07T07:15:16.929Z,20.07
2023-06-07T07:20:19.027Z,19.74
2023-06-07T07:25:22.827Z,19.83
2023-06-07T07:30:26.146Z,19.86
2023-06-07T07:35:29.002Z,20.18
2023-06-07T07:40:32.264Z,19.94
2023-06-07T07:45:34.614Z,20.11
2023-06-07T07:50:39.645Z,20.48
2023-06-07T07:55:43.219Z,20.95
2023-06-07T08:00:47.209Z,21.34
2023-06-07T08:05:50.851Z,21.27
2023-06-07T08:10:53.261Z,21.55
2023-06-07T08:15:56.815Z,21.73
2023-06-07T08:21:00.442Z,22.46
2023-06-07T08:26:04.262Z,22.59
2023-06-07T08:31:07.881Z,23.05
2023-06-07T08:36:11.291Z,22.81
2023-06-07T08:41:17.374Z,23.06
2023-06-07T08:46:21.870Z,23.19
2023-06-07T08:51:27.363Z,23.51
2023-06-07T08:56:33.422Z,23.61
2023-06-07T09:01:38.222Z,23.74
2023-06-07T09:06:41.135Z,23.61
2023-06-07T09:11:44.891Z,23.54
2023-06-07T09:16:55.975Z,23.44
2023-06-07T09:21:59.236Z,23.36
2023-06-07T09:27:04.526Z,23.92
2023-06-07T09:32:23.054Z,23.71
2023-06-07T09:37:46.460Z,23.83
2023-06-07T09:43:01.265Z,23.64
2023-06-07T09:48:08.644Z,23.71
2023-06-07T09:53:11.588Z,23.98
2023-06-07T09:58:25.939Z,23.75
2023-06-07T10:03:29.653Z,23.41
2023-06-07T10:08:32.379Z,23.47
2023-06-07T10:13:36.520Z,23.43
2023-06-07T10:18:43.003Z,23.55
2023-06-07T10:24:01.843Z,23.80
2023-06-07T10:29:10.430Z,23.40
2023-06-07T10:34:16.438Z,23.22
2023-06-07T10:39:23.581Z,23.24
2023-06-07T10:44:27.139Z,23.04
2023-06-07T10:49:37.068Z,23.66
2023-06-07T10:54:39.353Z,23.54
2023-06-07T10:59:44.327Z,24.20
2023-06-07T11:04:52.732Z,23.76
2023-06-07T11:10:14.698Z,23.19
2023-06-07T11:15:29.722Z,23.62
2023-06-07T11:20:39.685Z,24.00
2023-06-07T11:25:42.427Z,24.04
2023-06-07T11:30:44.925Z,24.45
2023-06-07T11:35:48.523Z,24.82
2023-06-07T11:40:51.030Z,24.80
2023-06-07T11:45:57.887Z,25.17
2023-06-07T11:51:01.315Z,25.68
2023-06-07T11:56:04.710Z,25.95
2023-06-07T12:01:07.754Z,26.31
2023-06-07T12:06:10.986Z,26.48
2023-06-07T12:11:15.338Z,26.21
2023-06-07T12:16:28.343Z,26.56
2023-06-07T12:21:31.806Z,25.84
2023-06-07T12:26:37.468Z,25.52
2023-06-07T12:31:44.059Z,25.78
2023-06-07T12:36:49.722Z,26.22
2023-06-07T12:41:53.616Z,26.21
2023-06-07T12:46:56.597Z,25.77
2023-06-07T12:51:58.780Z,26.02
2023-06-07T12:57:02.446Z,26.16
2023-06-07T13:02:08.140Z,25.96
2023-06-07T13:07:12.578Z,25.75
2023-06-07T13:12:17.281Z,25.98
2023-06-07T13:17:25.117Z,26.14
2023-06-07T13:22:34.035Z,26.41
2023-06-07T13:27:39.241Z,26.93
2023-06-07T13:32:43.971Z,26.87
2023-06-07T13:37:48.808Z,27.21
2023-06-07T13:42:53.754Z,26.79
2023-06-07T13:47:57.922Z,27.28
2023-06-07T13:53:02.872Z,26.53
2023-06-07T13:58:07.438Z,26.59
2023-06-07T14:03:11.010Z,26.46
2023-06-07T14:08:14.345Z,26.70
2023-06-07T14:13:19.626Z,26.17
2023-06-07T14:18:25.312Z,26.16
2023-06-07T14:23:30.044Z,26.37
2023-06-07T14:28:34.401Z,26.70
2023-06-07T14:33:39.882Z,27.05
2023-06-07T14:38:45.421Z,26.76
2023-06-07T14:43:49.782Z,27.19
2023-06-07T14:48:55.038Z,26.89
2023-06-07T14:54:01.707Z,27.02
2023-06-07T14:59:14.572Z,27.13
2023-06-07T15:04:19.035Z,27.31
2023-06-07T15:09:26.277Z,27.43
2023-06-07T15:14:30.249Z,27.63
2023-06-07T15:19:34.269Z,27.79
2023-06-07T15:24:38.827Z,27.56
2023-06-07T15:29:41.360Z,27.44
2023-06-07T15:34:46.452Z,27.37
2023-06-07T15:39:49.948Z,27.42
2023-06-07T15:44:53.296Z,27.60
2023-06-07T15:49:56.565Z,27.89
2023-06-07T15:54:58.679Z,28.25
2023-06-07T16:00:00.653Z,28.34
2023-06-07T16:05:04.328Z,28.66
2023-06-07T16:10:09.010Z,28.59
2023-06-07T16:15:12.511Z,28.89
2023-06-07T16:20:15.885Z,29.60
2023-06-07T16:25:20.896Z,29.18
2023-06-07T16:30:26.575Z,29.26
2023-06-07T16:35:29.607Z,29.96
2023-06-07T16:40:32.381Z,29.55
2023-06-07T16:45:37.518Z,30.44
2023-06-07T16:50:42.997Z,31.35
2023-06-07T16:55:46.725Z,32.20
2023-06-07T17:00:51.691Z,32.61
2023-06-07T17:05:56.880Z,33.36
2023-06-07T17:11:04.879Z,33.74
2023-06-07T17:16:10.609Z,34.05
2023-06-07T17:21:15.082Z,34.71
2023-06-07T17:26:19.110Z,34.97
2023-06-07T17:31:24.455Z,35.73
2023-06-07T17:36:36.796Z,36.39
2023-06-07T17:41:46.214Z,36.36
2023-06-07T17:46:48.831Z,36.93
2023-06-07T17:51:53.443Z,37.59
2023-06-07T17:56:55.728Z,38.10
2023-06-07T18:01:58.144Z,38.83
2023-06-07T18:07:04.272Z,39.46
2023-06-07T18:12:14.122Z,39.90
2023-06-07T18:17:18.845Z,40.36
2023-06-07T18:22:22.789Z,40.88
2023-06-07T18:27:25.936Z,41.39
2023-06-07T18:32:31.291Z,42.07
2023-06-07T18:37:37.433Z,42.71
2023-06-07T18:42:40.600Z,43.26
2023-06-07T18:47:45.351Z,44.15
2023-06-07T18:52:53.159Z,44.68
2023-06-07T18:57:59.849Z,45.14
2023-06-07T19:03:07.458Z,45.82
2023-06-07T19:08:14.116Z,46.30
2023-06-07T19:13:21.173Z,46.79
2023-06-07T19:18:24.746Z,47.01
2023-06-07T19:23:28.289Z,47.44
2023-06-07T19:28:35.009Z,47.95
2023-06-07T19:33:39.616Z,48.52
2023-06-07T19:38:45.421Z,48.82
2023-06-07T19:43:48.800Z,49.26
2023-06-07T19:48:51.407Z,49.94
2023-06-07T19:53:57.949Z,50.27
2023-06-07T19:59:01.905Z,50.79
2023-06-07T20:04:05.578Z,51.39
2023-06-07T20:09:10.658Z,51.73
2023-06-07T20:14:14.659Z,52.28
2023-06-07T20:19:18.284Z,52.76
2023-06-07T20:24:21.632Z,53.50
2023-06-07T20:29:25.464Z,54.00
2023-06-07T20:34:30.090Z,54.71
2023-06-07T20:39:33.249Z,55.25
2023-06-07T20:44:51.492Z,55.49
2023-06-07T20:49:59.161Z,56.10
2023-06-07T20:55:03.527Z,56.53
2023-06-07T21:00:10.230Z,56.92
2023-06-07T21:05:16.189Z,57.46
2023-06-07T21:10:19.723Z,57.81
2023-06-07T21:15:23.951Z,58.28
2023-06-07T21:20:28.610Z,58.78
2023-06-07T21:25:33.346Z,59.42
2023-06-07T21:30:36.609Z,59.79
2023-06-07T21:35:40.561Z,60.14
2023-06-07T21:40:44.335Z,60.56
2023-06-07T21:45:51.286Z,60.74
2023-06-07T21:50:55.435Z,61.13
2023-06-07T21:55:59.583Z,61.57
2023-06-07T22:01:03.094Z,61.80
2023-06-07T22:06:07.264Z,61.90
2023-06-07T22:11:10.186Z,62.32
2023-06-07T22:16:13.999Z,62.65
2023-06-07T22:21:19.033Z,63.24
2023-06-07T22:26:21.254Z,63.14
2023-06-07T22:31:23.886Z,63.56
2023-06-07T22:36:32.930Z,63.63
2023-06-07T22:41:36.318Z,63.80
2023-06-07T22:46:38.262Z,63.96
2023-06-07T22:51:44.446Z,64.77
2023-06-07T22:56:49.783Z,65.22
2023-06-07T23:01:55.461Z,65.55
2023-06-07T23:07:00.694Z,65.71
2023-06-07T23:12:06.599Z,66.00
2023-06-07T23:17:11.327Z,65.97
2023-06-07T23:22:18.550Z,66.40
2023-06-07T23:27:21.311Z,66.69
2023-06-07T23:32:24.350Z,67.15
2023-06-07T23:37:29.386Z,67.17
2023-06-07T23:42:33.707Z,67.25
2023-06-07T23:47:38.675Z,67.11
2023-06-07T23:52:42.235Z,67.22
2023-06-07T23:57:46.119Z,67.83
